Time;durP1;ratioP1;P1;durP2;ratioP2;P2;SDS_P1;SDS_P2;PMS_P1;PMS_P2;Temp;Humidity;BMP_temperature;BMP_pressure;BME280_temperature;BME280_humidity;BME280_pressure;Samples;Min_cycle;Max_cycle;Signal;HPM_P1;HPM_P2
2022/11/08 00:02:26;;;;;;;15.60;8.48;;;;;;;6.14;63.20;101679.62;1735766;80;25953;-61
2022/11/08 00:04:53;;;;;;;14.53;8.03;;;;;;;6.03;63.15;101680.23;1765911;81;25831;-62
2022/11/08 00:15:38;;;;;;;19.75;8.20;;;;;;;5.88;63.84;101669.39;1736009;82;25832;-61
2022/11/08 00:18:06;;;;;;;20.20;8.68;;;;;;;5.87;63.90;101672.16;1734699;82;25970;-62
2022/11/08 00:20:34;;;;;;;20.95;8.25;;;;;;;5.85;64.17;101667.36;1734932;82;27648;-61
2022/11/08 00:23:00;;;;;;;14.38;7.80;;;;;;;5.83;64.00;101671.95;1734471;82;25513;-61
2022/11/08 00:25:28;;;;;;;16.25;7.58;;;;;;;5.79;64.21;101670.77;1735260;82;25736;-61
2022/11/08 00:27:54;;;;;;;14.07;7.08;;;;;;;5.80;64.44;101674.28;1706672;84;27882;-61
2022/11/08 00:30:21;;;;;;;21.50;8.58;;;;;;;5.79;64.51;101674.77;1736358;82;25738;-61
2022/11/08 00:32:48;;;;;;;16.87;8.30;;;;;;;5.82;64.52;101675.56;1734784;81;28465;-61
2022/11/08 00:35:15;;;;;;;16.77;7.62;;;;;;;5.86;64.57;101670.42;1735049;82;25735;-61
2022/11/08 00:37:42;;;;;;;17.37;7.55;;;;;;;5.86;64.97;101663.75;1735178;82;25756;-60
2022/11/08 00:40:11;;;;;;;15.08;6.92;;;;;;;5.89;65.14;101667.59;1735390;82;25793;-61
2022/11/08 00:42:38;;;;;;;15.58;7.72;;;;;;;5.91;65.24;101662.55;1735075;82;25637;-62
2022/11/08 00:45:06;;;;;;;19.60;7.78;;;;;;;5.99;65.49;101655.92;1735164;82;27486;-61
2022/11/08 00:47:33;;;;;;;25.88;8.23;;;;;;;6.04;65.39;101653.91;1735367;82;25930;-61
2022/11/08 00:49:59;;;;;;;15.65;7.70;;;;;;;6.09;65.45;101659.39;1735129;82;25513;-61
2022/11/08 00:52:26;;;;;;;14.95;6.78;;;;;;;6.17;65.55;101652.27;1736008;82;25943;-61
2022/11/08 00:54:52;;;;;;;12.88;7.12;;;;;;;6.25;65.61;101653.18;1736212;82;25760;-61
2022/11/08 00:57:19;;;;;;;19.73;7.40;;;;;;;6.30;65.63;101655.59;1736052;82;28391;-61
2022/11/08 00:59:46;;;;;;;14.75;8.15;;;;;;;6.37;65.58;101655.14;1736734;82;25511;-61
2022/11/08 01:02:13;;;;;;;17.60;8.05;;;;;;;6.44;65.37;101658.33;1736376;82;25683;-60
2022/11/08 01:04:41;;;;;;;16.77;6.75;;;;;;;6.52;65.45;101656.57;1772460;80;25789;-61
2022/11/08 01:07:08;;;;;;;16.80;7.30;;;;;;;6.58;65.45;101653.08;1744147;80;25787;-61
2022/11/08 01:09:34;;;;;;;15.48;6.75;;;;;;;6.62;65.31;101648.87;1714925;82;27468;-61
2022/11/08 01:12:01;;;;;;;15.20;6.90;;;;;;;6.64;65.32;101649.16;1726362;82;25740;-61
2022/11/08 01:14:28;;;;;;;17.27;6.97;;;;;;;6.66;65.13;101649.94;1735580;82;25739;-60
2022/11/08 01:16:55;;;;;;;17.87;6.50;;;;;;;6.69;65.01;101648.89;1735409;81;25811;-61
2022/11/08 01:19:21;;;;;;;18.37;6.90;;;;;;;6.69;64.66;101644.88;1735844;82;25835;-61
2022/11/08 01:21:48;;;;;;;16.62;6.92;;;;;;;6.67;64.61;101650.33;1735916;82;27592;-60
2022/11/08 01:24:15;;;;;;;14.50;7.22;;;;;;;6.65;64.52;101642.86;1735220;81;25776;-61
2022/11/08 01:26:42;;;;;;;18.87;6.83;;;;;;;6.64;64.48;101645.14;1735895;82;25707;-61
2022/11/08 01:29:09;;;;;;;14.45;7.00;;;;;;;6.63;64.34;101638.56;1735869;82;25889;-61
2022/11/08 01:31:35;;;;;;;12.78;6.60;;;;;;;6.57;64.28;101637.98;1735697;82;25664;-61
2022/11/08 01:34:02;;;;;;;15.75;7.62;;;;;;;6.52;64.39;101642.72;1735812;82;27511;-61
2022/11/08 01:36:29;;;;;;;18.65;7.08;;;;;;;6.51;64.42;101645.48;1735552;82;26157;-61
2022/11/08 01:38:56;;;;;;;16.30;7.12;;;;;;;6.49;64.48;101654.94;1735160;82;26260;-61
2022/11/08 01:41:26;;;;;;;11.22;6.92;;;;;;;6.48;64.56;101655.00;1737216;82;26692;-61
2022/11/08 01:43:55;;;;;;;16.40;7.62;;;;;;;6.47;64.66;101654.16;1713691;82;25815;-61
2022/11/08 01:46:41;;;;;;;12.68;6.85;;;;;;;6.41;65.68;101658.04;1735838;82;28044;-61
2022/11/08 01:49:19;;;;;;;13.08;7.10;;;;;;;6.33;65.81;101658.07;1734922;82;25743;-61
2022/11/08 01:52:03;;;;;;;12.95;6.72;;;;;;;6.30;65.97;101656.44;1734661;82;25835;-61
2022/11/08 01:54:56;;;;;;;12.33;6.67;;;;;;;6.30;66.05;101655.59;1722241;82;27937;-61
2022/11/08 01:57:49;;;;;;;14.53;7.45;;;;;;;6.33;66.02;101659.41;1735826;81;25790;-61
2022/11/08 02:00:17;;;;;;;16.77;6.23;;;;;;;6.38;66.09;101655.53;1735021;82;27390;-61
2022/11/08 02:02:50;;;;;;;14.83;6.37;;;;;;;6.45;66.03;101660.06;1732663;82;25656;-61
2022/11/08 02:05:24;;;;;;;12.30;7.00;;;;;;;6.51;66.14;101658.85;1731245;82;25693;-61
2022/11/08 02:08:20;;;;;;;16.17;6.10;;;;;;;6.54;66.08;101658.20;1735366;82;25946;-61
2022/11/08 02:10:51;;;;;;;16.87;6.10;;;;;;;6.60;66.03;101655.65;1736029;82;25849;-61
2022/11/08 02:13:25;;;;;;;13.72;6.75;;;;;;;6.64;65.95;101648.31;1725296;82;27515;-61
2022/11/08 02:15:53;;;;;;;18.45;7.17;;;;;;;6.68;66.06;101647.20;1734779;82;25728;-61
2022/11/08 02:18:23;;;;;;;22.70;6.45;;;;;;;6.74;65.99;101652.17;1736080;82;25746;-61
2022/11/08 02:21:04;;;;;;;8.83;5.72;;;;;;;6.79;66.19;101654.09;1724605;82;25773;-61
2022/11/08 02:23:57;;;;;;;18.73;6.90;;;;;;;6.84;66.01;101656.04;1735670;81;25799;-61
2022/11/08 02:26:29;;;;;;;13.37;6.47;;;;;;;6.91;65.90;101651.66;1717839;82;28591;-61
2022/11/08 02:28:55;;;;;;;17.32;7.87;;;;;;;6.94;65.55;101657.69;1734706;82;25528;-61
2022/11/08 02:31:23;;;;;;;14.63;6.37;;;;;;;6.98;65.39;101660.58;1735226;82;25769;-61
2022/11/08 02:33:50;;;;;;;14.85;6.60;;;;;;;6.97;64.93;101666.00;1734565;82;25803;-61
2022/11/08 02:36:20;;;;;;;14.18;6.80;;;;;;;6.87;64.85;101658.52;1735639;82;25905;-61
2022/11/08 02:38:52;;;;;;;13.65;6.50;;;;;;;6.84;64.80;101665.40;1737229;82;27469;-61
2022/11/08 02:41:19;;;;;;;14.15;7.17;;;;;;;6.80;64.72;101668.34;1735623;82;25783;-61
2022/11/08 02:43:46;;;;;;;15.38;6.67;;;;;;;6.72;64.76;101666.95;1735078;82;25767;-61
2022/11/08 02:46:12;;;;;;;12.58;7.75;;;;;;;6.68;64.76;101672.11;1735220;82;25769;-61
2022/11/08 02:48:39;;;;;;;12.80;7.12;;;;;;;6.63;65.10;101673.32;1736966;82;26256;-61
2022/11/08 02:51:06;;;;;;;13.58;7.10;;;;;;;6.57;65.52;101672.73;1737709;82;27638;-61
2022/11/08 02:53:32;;;;;;;15.60;6.90;;;;;;;6.48;65.34;101679.95;1737498;81;26068;-60
2022/11/08 02:55:59;;;;;;;19.48;7.50;;;;;;;6.46;65.83;101679.62;1738112;82;25772;-61
2022/11/08 02:58:26;;;;;;;14.10;6.87;;;;;;;6.42;65.68;101685.62;1741136;80;25985;-61
2022/11/08 03:00:53;;;;;;;16.50;7.12;;;;;;;6.44;66.33;101690.89;1741172;80;25897;-60
2022/11/08 03:03:20;;;;;;;10.23;5.97;;;;;;;6.39;66.03;101691.16;1769955;80;27458;-60
2022/11/08 03:05:47;;;;;;;12.75;7.22;;;;;;;6.43;66.68;101688.68;1737719;82;25811;-60
2022/11/08 03:08:15;;;;;;;14.70;7.03;;;;;;;6.40;66.23;101691.55;1738037;82;25659;-61
2022/11/08 03:10:52;;;;;;;12.15;6.17;;;;;;;6.39;66.24;101680.47;1737900;81;25788;-61
2022/11/08 03:13:13;;;;;;;22.75;6.33;;;;;;;6.40;66.64;101695.06;1729792;82;25744;-61
2022/11/08 03:15:40;;;;;;;14.10;6.67;;;;;;;6.40;67.05;101697.73;1732834;82;27456;-61
2022/11/08 03:18:07;;;;;;;11.45;6.08;;;;;;;6.38;66.65;101696.11;1737810;82;26083;-61
2022/11/08 03:20:34;;;;;;;12.90;5.70;;;;;;;6.40;66.74;101697.73;1737722;82;25818;-61
2022/11/08 03:23:05;;;;;;;12.78;6.58;;;;;;;6.45;66.76;101697.97;1739285;82;26651;-61
2022/11/08 03:25:34;;;;;;;13.65;6.95;;;;;;;6.48;66.89;101701.33;1737976;82;25972;-61
2022/11/08 03:28:07;;;;;;;16.77;6.28;;;;;;;6.48;66.94;101709.34;1736148;82;28472;-61
2022/11/08 03:30:35;;;;;;;14.40;7.05;;;;;;;6.47;66.69;101706.28;1731955;82;26114;-61
2022/11/08 03:33:03;;;;;;;18.45;7.30;;;;;;;6.41;66.99;101704.81;1737884;82;25612;-61
2022/11/08 03:35:29;;;;;;;17.20;7.85;;;;;;;6.38;66.77;101706.80;1737578;82;26592;-61
2022/11/08 03:37:57;;;;;;;18.10;7.72;;;;;;;6.38;66.78;101706.80;1737822;82;25795;-61
2022/11/08 03:40:25;;;;;;;20.20;7.25;;;;;;;6.40;66.79;101709.77;1737254;82;27703;-61
2022/11/08 03:42:53;;;;;;;15.25;7.22;;;;;;;6.44;66.69;101704.27;1737607;82;25806;-62
2022/11/08 03:45:20;;;;;;;18.02;8.78;;;;;;;6.45;66.55;101712.67;1737628;82;25775;-62
2022/11/08 03:47:47;;;;;;;24.50;7.53;;;;;;;6.47;66.43;101720.11;1736224;82;26544;-61
2022/11/08 03:50:18;;;;;;;15.15;6.80;;;;;;;6.46;66.37;101720.59;1735680;82;25668;-62
2022/11/08 03:52:48;;;;;;;13.10;6.80;;;;;;;6.46;66.50;101724.60;1735097;82;27504;-61
2022/11/08 03:55:17;;;;;;;21.10;8.20;;;;;;;6.40;66.22;101724.47;1735331;82;25824;-61
2022/11/08 03:57:46;;;;;;;22.75;8.00;;;;;;;6.38;66.43;101726.36;1736478;82;25746;-61
2022/11/08 04:00:18;;;;;;;19.50;7.85;;;;;;;6.37;66.31;101723.78;1751115;81;25843;-62
2022/11/08 04:02:45;;;;;;;20.72;7.72;;;;;;;6.34;66.20;101725.27;1741952;80;25811;-61
2022/11/08 04:05:14;;;;;;;15.88;7.58;;;;;;;6.31;66.18;101722.80;1707666;83;27483;-61
2022/11/08 04:07:42;;;;;;;16.10;7.47;;;;;;;6.26;66.16;101723.05;1717957;82;25820;-62
2022/11/08 04:10:10;;;;;;;26.30;7.40;;;;;;;6.24;66.17;101719.59;1734913;82;25778;-61
2022/11/08 04:15:30;;;;;;;15.78;7.33;;;;;;;6.20;66.42;101718.02;1735140;82;25893;-63
2022/11/08 04:23:34;;;;;;;40.38;9.23;;;;;;;6.12;66.80;101719.80;1735506;82;25856;-61
2022/11/08 04:26:10;;;;;;;17.55;7.42;;;;;;;6.14;67.53;101720.55;1733897;81;26618;-61
2022/11/08 04:28:38;;;;;;;21.15;7.45;;;;;;;6.04;67.13;101714.86;1734741;82;25775;-61
2022/11/08 04:31:13;;;;;;;20.25;7.08;;;;;;;6.03;67.37;101720.30;1735413;82;27602;-61
2022/11/08 04:33:40;;;;;;;16.35;7.65;;;;;;;6.05;67.46;101722.42;1734741;82;25673;-61
2022/11/08 04:36:14;;;;;;;23.05;7.17;;;;;;;6.05;67.54;101724.61;1734544;82;25688;-62
2022/11/08 04:38:41;;;;;;;21.15;7.45;;;;;;;6.14;68.37;101732.57;1735309;82;26775;-62
2022/11/08 04:41:14;;;;;;;18.12;7.05;;;;;;;6.13;68.20;101730.88;1736022;81;25820;-61
2022/11/08 04:43:42;;;;;;;17.80;6.80;;;;;;;6.13;67.85;101735.34;1735379;82;27446;-60
2022/11/08 04:46:17;;;;;;;19.45;7.50;;;;;;;6.15;67.87;101732.12;1730809;82;25765;-61
2022/11/08 04:48:45;;;;;;;28.02;8.13;;;;;;;6.21;68.10;101736.66;1731687;82;25751;-61
2022/11/08 04:51:22;;;;;;;20.27;7.50;;;;;;;6.23;67.86;101737.41;1734431;82;25967;-62
2022/11/08 04:53:49;;;;;;;28.42;7.92;;;;;;;6.28;67.86;101741.17;1733598;82;25529;-61
2022/11/08 04:56:20;;;;;;;30.82;7.83;;;;;;;6.33;67.93;101748.94;1736090;82;27478;-61
2022/11/08 04:58:56;;;;;;;25.32;7.80;;;;;;;6.37;68.04;101741.16;1734542;82;25924;-60
2022/11/08 05:01:30;;;;;;;24.23;8.20;;;;;;;6.44;67.90;101746.54;1735841;82;25763;-62
2022/11/08 05:03:57;;;;;;;23.20;7.25;;;;;;;6.50;67.71;101739.99;1743744;80;26789;-62
2022/11/08 05:06:28;;;;;;;20.17;7.67;;;;;;;6.51;67.44;101740.38;1737489;80;25776;-61
2022/11/08 05:08:57;;;;;;;21.55;8.05;;;;;;;6.47;67.39;101749.05;1735391;82;28130;-61
2022/11/08 05:11:28;;;;;;;17.30;7.65;;;;;;;6.45;67.32;101750.09;1735615;82;25727;-62
2022/11/08 05:13:55;;;;;;;30.25;9.80;;;;;;;6.44;67.12;101753.22;1726229;82;25814;-61
2022/11/08 05:16:26;;;;;;;18.65;8.90;;;;;;;6.41;66.97;101756.94;1735411;81;26766;-61
2022/11/08 05:18:53;;;;;;;28.15;8.35;;;;;;;6.40;67.01;101757.88;1735493;81;25840;-61
2022/11/08 05:24:11;;;;;;;34.13;7.97;;;;;;;6.41;66.73;101769.41;1707429;83;26482;-61
2022/11/08 05:26:41;;;;;;;24.95;8.98;;;;;;;6.36;66.60;101763.48;1675555;85;25794;-61
2022/11/08 05:29:09;;;;;;;29.77;8.33;;;;;;;6.34;66.66;101773.38;1734874;82;25917;-61
2022/11/08 05:31:36;;;;;;;55.45;10.10;;;;;;;6.33;66.66;101771.20;1741806;81;25795;-61
2022/11/08 05:34:03;;;;;;;36.30;9.88;;;;;;;6.32;66.67;101768.13;1744298;81;27481;-61
2022/11/08 05:36:30;;;;;;;32.70;9.90;;;;;;;6.32;66.63;101775.30;1757886;81;25508;-61
2022/11/08 05:38:57;;;;;;;34.80;10.18;;;;;;;6.31;66.70;101777.09;1735432;82;25970;-61
2022/11/08 05:41:25;;;;;;;28.60;9.70;;;;;;;6.32;66.83;101784.16;1736134;82;25938;-61
2022/11/08 05:43:54;;;;;;;30.65;8.68;;;;;;;6.32;66.92;101785.50;1735856;81;25800;-61
2022/11/08 05:46:22;;;;;;;24.82;8.00;;;;;;;6.32;66.94;101781.49;1707749;83;28128;-61
2022/11/08 05:48:49;;;;;;;18.85;10.35;;;;;;;6.32;66.76;101790.00;1735762;82;25721;-61
2022/11/08 05:51:20;;;;;;;30.15;9.95;;;;;;;6.34;66.86;101803.66;1743153;81;26645;-61
2022/11/08 05:53:47;;;;;;;28.55;10.35;;;;;;;6.34;66.79;101796.09;1743173;80;25792;-62
2022/11/08 05:56:14;;;;;;;26.97;9.20;;;;;;;6.38;66.86;101807.02;1742658;82;26076;-61
2022/11/08 05:58:41;;;;;;;29.23;9.20;;;;;;;6.38;67.04;101809.21;1743218;81;27497;-62
2022/11/08 06:01:17;;;;;;;21.20;9.43;;;;;;;6.44;67.17;101805.83;1742924;82;27273;-62
2022/11/08 06:03:46;;;;;;;33.00;9.53;;;;;;;6.47;67.22;101809.20;1752173;80;25754;-61
2022/11/08 06:06:17;;;;;;;27.42;9.13;;;;;;;6.55;67.46;101809.64;1743755;81;26476;-62
2022/11/08 06:08:45;;;;;;;17.75;8.10;;;;;;;6.65;67.64;101813.98;1722734;82;25832;-61
2022/11/08 06:11:16;;;;;;;27.82;9.45;;;;;;;6.71;67.57;101816.34;1743887;81;27395;-61
2022/11/08 06:13:43;;;;;;;21.90;8.63;;;;;;;6.82;67.76;101819.75;1743059;82;25879;-61
2022/11/08 06:16:14;;;;;;;24.60;7.75;;;;;;;6.93;67.50;101817.80;1743570;81;25786;-61
2022/11/08 06:18:41;;;;;;;20.62;7.25;;;;;;;7.02;67.25;101816.42;1743236;81;25787;-61
2022/11/08 06:21:12;;;;;;;37.40;8.08;;;;;;;7.11;67.31;101823.93;1743590;81;26045;-62
2022/11/08 06:23:39;;;;;;;15.08;7.30;;;;;;;7.17;67.13;101822.72;1743476;81;27472;-61
2022/11/08 06:26:07;;;;;;;17.25;8.30;;;;;;;7.22;66.96;101824.64;1744861;82;25940;-62
2022/11/08 06:28:35;;;;;;;25.95;8.98;;;;;;;7.28;66.96;101830.97;1743538;80;25914;-61
2022/11/08 06:31:03;;;;;;;26.37;8.30;;;;;;;7.32;66.74;101835.66;1743941;80;25905;-61
2022/11/08 06:33:30;;;;;;;22.50;7.53;;;;;;;7.36;66.39;101842.58;1743021;82;25775;-61
2022/11/08 06:35:57;;;;;;;21.62;7.72;;;;;;;7.36;66.12;101839.91;1744176;82;27469;-61
2022/11/08 06:38:24;;;;;;;23.15;7.87;;;;;;;7.35;66.13;101836.84;1742860;81;25644;-61
2022/11/08 06:40:51;;;;;;;14.90;7.35;;;;;;;7.38;66.01;101839.34;1744062;81;25755;-61
2022/11/08 06:43:18;;;;;;;22.10;8.00;;;;;;;7.38;65.85;101840.69;1725431;82;25831;-61
2022/11/08 06:45:45;;;;;;;28.25;7.95;;;;;;;7.40;65.75;101840.59;1715329;83;25807;-61
2022/11/08 06:48:11;;;;;;;21.25;8.30;;;;;;;7.38;65.80;101835.79;1731724;81;27653;-61
2022/11/08 06:50:38;;;;;;;23.87;7.97;;;;;;;7.43;65.82;101847.11;1735043;82;25712;-61
2022/11/08 06:53:08;;;;;;;34.13;9.78;;;;;;;7.47;65.86;101848.19;1735335;82;25784;-61
2022/11/08 06:55:35;;;;;;;20.70;8.55;;;;;;;7.53;65.83;101848.27;1733116;82;25792;-61
2022/11/08 06:58:03;;;;;;;26.95;7.92;;;;;;;7.51;65.74;101844.36;1714442;82;25813;-61
2022/11/08 07:00:30;;;;;;;13.20;8.10;;;;;;;7.54;65.56;101844.65;1735227;82;27375;-61
2022/11/08 07:03:00;;;;;;;19.57;8.28;;;;;;;7.58;65.61;101853.36;1736097;80;25735;-61
2022/11/08 07:05:29;;;;;;;49.50;8.73;;;;;;;7.63;65.54;101853.97;1734172;82;25799;-61
2022/11/08 07:07:57;;;;;;;29.10;8.28;;;;;;;7.65;65.51;101857.42;1729773;82;25981;-61
2022/11/08 07:10:28;;;;;;;18.65;8.33;;;;;;;7.70;65.57;101851.80;1730853;82;26781;-62
2022/11/08 07:13:05;;;;;;;26.02;9.08;;;;;;;7.74;65.52;101849.31;1727466;82;27473;-61
2022/11/08 07:15:35;;;;;;;22.98;9.45;;;;;;;7.78;65.38;101848.19;1725382;82;26074;-61
2022/11/08 07:18:08;;;;;;;20.25;9.13;;;;;;;7.82;65.40;101843.02;1730349;82;25830;-62
2022/11/08 07:20:35;;;;;;;33.15;8.85;;;;;;;7.84;65.24;101847.32;1701212;83;25944;-61
2022/11/08 07:23:02;;;;;;;25.68;8.98;;;;;;;7.87;65.23;101846.75;1733251;82;25722;-62
2022/11/08 07:25:30;;;;;;;22.07;10.08;;;;;;;7.91;65.17;101840.27;1734621;82;27396;-62
2022/11/08 07:28:03;;;;;;;24.30;9.00;;;;;;;7.90;64.97;101834.53;1734573;82;25738;-61
2022/11/08 07:30:32;;;;;;;26.20;9.93;;;;;;;7.88;65.01;101840.45;1736353;82;25736;-61
2022/11/08 07:32:58;;;;;;;27.32;10.85;;;;;;;7.93;65.11;101834.36;1734830;82;25756;-62
2022/11/08 07:35:26;;;;;;;27.98;9.55;;;;;;;7.99;65.24;101840.18;1735756;82;25745;-61
2022/11/08 07:37:55;;;;;;;15.32;8.50;;;;;;;8.08;65.09;101844.59;1720106;82;27489;-62
2022/11/08 07:40:23;;;;;;;23.40;8.25;;;;;;;8.13;65.17;101849.21;1734162;82;25764;-61
2022/11/08 07:42:50;;;;;;;27.85;8.80;;;;;;;8.23;65.27;101853.52;1736025;82;25723;-61
2022/11/08 07:45:17;;;;;;;20.17;7.10;;;;;;;8.34;65.09;101852.38;1732111;82;25798;-61
2022/11/08 07:47:44;;;;;;;35.40;7.83;;;;;;;8.49;65.14;101856.43;1726709;81;25795;-61
2022/11/08 07:50:11;;;;;;;21.33;7.83;;;;;;;8.55;64.51;101856.91;1713273;83;28318;-61
2022/11/08 07:52:37;;;;;;;18.77;7.37;;;;;;;8.65;64.29;101857.19;1742506;82;25475;-62
2022/11/08 07:55:06;;;;;;;29.60;7.70;;;;;;;8.75;64.38;101861.02;1742295;82;25711;-61
2022/11/08 07:57:33;;;;;;;23.85;7.75;;;;;;;8.88;64.41;101862.43;1742493;82;25851;-62
2022/11/08 08:00:00;;;;;;;18.57;7.50;;;;;;;9.05;64.12;101855.98;1744031;82;25430;-62
2022/11/08 08:02:26;;;;;;;19.65;7.67;;;;;;;9.19;63.75;101856.43;1747328;80;27482;-62
2022/11/08 08:04:53;;;;;;;20.62;7.58;;;;;;;9.32;63.62;101852.45;1745236;80;25720;-62
2022/11/08 08:07:20;;;;;;;31.27;7.72;;;;;;;9.51;63.44;101856.11;1744390;81;25859;-61
2022/11/08 08:09:47;;;;;;;13.65;6.75;;;;;;;9.64;62.82;101856.14;1744546;82;25916;-61
2022/11/08 08:12:13;;;;;;;19.10;7.78;;;;;;;9.71;62.27;101859.28;1743014;82;25720;-61
2022/11/08 08:14:40;;;;;;;20.15;8.03;;;;;;;9.82;61.97;101851.36;1746406;81;27424;-62
2022/11/08 08:17:07;;;;;;;20.50;7.25;;;;;;;9.87;60.70;101850.55;1744339;82;25686;-62
2022/11/08 08:19:34;;;;;;;13.50;7.30;;;;;;;9.91;60.57;101855.73;1745538;82;25804;-61
2022/11/08 08:22:01;;;;;;;22.67;7.85;;;;;;;9.95;60.96;101858.10;1739451;82;25757;-62
2022/11/08 08:24:28;;;;;;;21.45;6.85;;;;;;;10.03;61.20;101853.55;1743096;82;25449;-62
2022/11/08 08:26:55;;;;;;;21.80;8.18;;;;;;;10.14;61.05;101856.34;1744614;82;27501;-61
2022/11/08 08:29:22;;;;;;;17.98;8.53;;;;;;;10.21;59.73;101850.05;1745919;82;25780;-62
2022/11/08 08:31:49;;;;;;;19.98;8.73;;;;;;;10.18;59.41;101846.22;1742029;82;25772;-62
2022/11/08 08:34:16;;;;;;;16.82;8.13;;;;;;;10.15;60.14;101855.38;1745245;80;25778;-62
2022/11/08 08:36:44;;;;;;;27.07;8.83;;;;;;;10.20;60.14;101855.05;1743881;82;25849;-62
2022/11/08 08:39:11;;;;;;;24.10;9.48;;;;;;;10.37;60.52;101847.62;1743739;82;27362;-61
2022/11/08 08:41:38;;;;;;;18.73;8.03;;;;;;;10.67;60.33;101854.52;1745301;81;25742;-62
2022/11/08 08:44:05;;;;;;;26.07;8.58;;;;;;;11.10;59.49;101846.00;1744784;81;25843;-62
2022/11/08 08:46:32;;;;;;;22.87;10.08;;;;;;;11.72;59.01;101844.95;1743477;81;25802;-62
2022/11/08 08:48:59;;;;;;;19.75;9.18;;;;;;;12.59;57.73;101844.15;1740317;82;25708;-62
2022/11/08 08:51:26;;;;;;;28.47;10.13;;;;;;;13.51;56.30;101845.68;1737584;81;27448;-62
2022/11/08 08:53:52;;;;;;;18.65;10.15;;;;;;;14.22;54.16;101847.74;1743286;82;26074;-62
2022/11/08 08:56:19;;;;;;;20.32;9.43;;;;;;;14.74;54.16;101845.54;1743670;82;25710;-62
2022/11/08 08:58:48;;;;;;;22.13;9.75;;;;;;;15.56;52.65;101843.02;1745586;81;25854;-62
2022/11/08 09:01:15;;;;;;;26.02;9.28;;;;;;;16.26;51.34;101842.82;1745976;81;26383;-62
2022/11/08 09:03:42;;;;;;;28.20;9.00;;;;;;;16.93;49.65;101836.41;1755261;80;27631;-62
2022/11/08 09:06:09;;;;;;;15.65;8.33;;;;;;;17.65;48.19;101832.37;1743695;81;25727;-62
2022/11/08 09:08:36;;;;;;;24.47;9.45;;;;;;;17.95;47.73;101835.64;1744980;81;25790;-62
2022/11/08 09:11:03;;;;;;;27.70;8.48;;;;;;;17.79;46.88;101838.25;1747562;82;25958;-62
2022/11/08 09:13:30;;;;;;;25.30;9.85;;;;;;;17.59;46.70;101834.86;1746573;81;25735;-62
2022/11/08 09:16:00;;;;;;;27.80;9.33;;;;;;;17.38;46.58;101829.73;1744379;81;27545;-62
2022/11/08 09:18:28;;;;;;;20.27;8.63;;;;;;;17.06;45.69;101836.04;1743356;82;25775;-61
2022/11/08 09:20:57;;;;;;;28.10;9.93;;;;;;;17.21;46.37;101825.50;1743462;82;25822;-62
2022/11/08 09:23:23;;;;;;;20.55;8.40;;;;;;;17.24;46.08;101821.09;1742850;80;25776;-62
2022/11/08 09:25:57;;;;;;;22.67;8.38;;;;;;;17.16;45.84;101816.44;1742700;81;25718;-62
2022/11/08 09:28:24;;;;;;;22.07;8.63;;;;;;;17.14;45.81;101822.53;1746606;81;27480;-62
2022/11/08 09:30:51;;;;;;;17.75;7.97;;;;;;;17.13;45.99;101822.18;1742917;81;25766;-62
2022/11/08 09:33:18;;;;;;;21.68;8.93;;;;;;;17.16;45.46;101820.52;1744546;81;25842;-62
2022/11/08 09:35:45;;;;;;;16.62;9.20;;;;;;;17.08;45.00;101816.84;1746492;82;25795;-62
2022/11/08 09:38:12;;;;;;;24.67;8.65;;;;;;;17.08;44.96;101819.56;1745026;81;25744;-61
2022/11/08 09:40:59;;;;;;;19.57;8.85;;;;;;;17.13;45.04;101820.82;1744687;82;27443;-61
2022/11/08 09:44:08;;;;;;;25.30;8.55;;;;;;;17.20;42.25;101816.47;1744822;82;26154;-61
2022/11/08 09:46:57;;;;;;;21.33;10.32;;;;;;;17.22;44.00;101810.86;1743260;81;25812;-62
2022/11/08 09:49:41;;;;;;;28.75;9.05;;;;;;;17.77;43.95;101812.55;1736039;81;25975;-62
2022/11/08 09:52:13;;;;;;;18.27;7.53;;;;;;;18.25;42.84;101809.48;1752263;79;26520;-62
2022/11/08 09:54:43;;;;;;;32.40;10.25;;;;;;;18.69;43.28;101803.89;1751049;81;27295;-62
2022/11/08 09:57:18;;;;;;;19.25;8.23;;;;;;;18.73;41.71;101808.00;1751254;79;25734;-62
2022/11/08 09:59:53;;;;;;;26.00;8.98;;;;;;;18.75;42.88;101801.89;1753487;79;25705;-62
2022/11/08 10:02:23;;;;;;;25.27;8.83;;;;;;;19.28;41.45;101807.64;1754824;79;25905;-62
2022/11/08 10:04:58;;;;;;;20.35;8.28;;;;;;;19.67;40.75;101794.20;1752218;79;25743;-62
2022/11/08 10:07:49;;;;;;;45.45;9.73;;;;;;;20.22;40.71;101797.19;1754869;79;27448;-62
2022/11/08 10:10:56;;;;;;;23.35;9.30;;;;;;;20.85;39.91;101797.30;1751401;81;25861;-61
2022/11/08 10:14:03;;;;;;;26.07;8.40;;;;;;;21.54;39.02;101791.52;1754881;81;25718;-61
2022/11/08 10:16:46;;;;;;;25.65;8.45;;;;;;;21.83;37.44;101789.39;1754786;81;26611;-61
2022/11/08 10:19:40;;;;;;;;;;;;;;;22.25;36.95;101782.12;1757362;81;25790;-62
2022/11/08 10:22:47;;;;;;;21.80;8.60;;;;;;;22.70;36.10;101777.97;1754056;79;28296;-62
2022/11/08 10:25:34;;;;;;;19.92;9.10;;;;;;;23.08;35.59;101777.27;1754490;81;25656;-61
2022/11/08 10:28:03;;;;;;;20.48;7.67;;;;;;;23.53;34.80;101778.44;1754191;81;26715;-61
2022/11/08 10:30:37;;;;;;;15.65;8.58;;;;;;;24.05;34.59;101774.95;1753316;81;25792;-61
2022/11/08 10:33:38;;;;;;;18.85;8.15;;;;;;;24.57;33.63;101773.20;1726077;81;25650;-62
2022/11/08 10:36:13;;;;;;;25.43;7.95;;;;;;;24.97;33.00;101775.27;1756228;80;27394;-61
2022/11/08 10:39:03;;;;;;;22.15;8.50;;;;;;;25.17;33.11;101769.79;1748605;81;25830;-61
2022/11/08 10:41:57;;;;;;;19.35;7.90;;;;;;;25.31;31.38;101768.77;1758833;81;25720;-62
2022/11/08 10:44:25;;;;;;;17.05;7.97;;;;;;;25.45;30.01;101758.64;1754481;81;25830;-60
2022/11/08 10:47:11;;;;;;;24.25;8.05;;;;;;;25.53;31.66;101758.94;1753916;81;26853;-61
2022/11/08 10:49:42;;;;;;;24.15;8.15;;;;;;;25.80;30.40;101761.67;1750414;81;27485;-61
2022/11/08 10:52:25;;;;;;;16.35;7.20;;;;;;;26.03;30.42;101760.37;1735313;82;25554;-62
2022/11/08 10:54:56;;;;;;;17.40;8.00;;;;;;;26.20;30.25;101758.00;1735683;82;25671;-61
2022/11/08 10:57:34;;;;;;;22.65;6.75;;;;;;;26.73;30.58;101761.08;1734614;82;25837;-62
2022/11/08 11:00:24;;;;;;;24.92;7.83;;;;;;;27.03;29.86;101753.59;1734951;82;25486;-62
2022/11/08 11:02:56;;;;;;;19.12;7.05;;;;;;;27.28;29.09;101761.91;1724414;80;28275;-62
2022/11/08 11:05:36;;;;;;;23.45;7.20;;;;;;;27.43;28.45;101757.47;1732902;82;25822;-62
2022/11/08 11:08:13;;;;;;;23.10;6.62;;;;;;;27.66;27.26;101758.75;1735648;82;25675;-61
2022/11/08 11:10:47;;;;;;;15.70;6.25;;;;;;;27.56;27.13;101755.68;1735333;82;25810;-61
2022/11/08 11:13:22;;;;;;;21.15;7.45;;;;;;;27.54;27.76;101754.50;1735135;82;25762;-62
2022/11/08 11:15:57;;;;;;;20.77;7.12;;;;;;;27.57;27.76;101745.77;1735090;82;27505;-61
2022/11/08 11:18:46;;;;;;;15.10;6.75;;;;;;;27.40;26.74;101750.14;1735402;82;25703;-62
2022/11/08 11:21:16;;;;;;;18.25;6.50;;;;;;;27.18;27.04;101751.89;1735058;82;25807;-61
2022/11/08 11:23:48;;;;;;;21.40;7.20;;;;;;;26.97;27.65;101747.59;1736425;82;25794;-61
2022/11/08 11:26:34;;;;;;;21.37;7.42;;;;;;;26.83;28.04;101736.64;1702157;82;26192;-62
2022/11/08 11:29:06;;;;;;;13.53;7.05;;;;;;;26.64;27.55;101740.33;1667514;82;27715;-62
2022/11/08 11:31:39;;;;;;;18.75;8.25;;;;;;;26.28;27.72;101741.76;1716564;82;25708;-62
2022/11/08 11:34:32;;;;;;;19.23;7.42;;;;;;;25.66;28.28;101740.17;1725754;82;25841;-61
2022/11/08 11:37:13;;;;;;;23.07;7.90;;;;;;;25.10;28.78;101735.91;1736243;82;25718;-61
2022/11/08 11:40:19;;;;;;;23.55;8.15;;;;;;;24.49;29.32;101732.96;1729526;81;27225;-61
2022/11/08 11:43:01;;;;;;;19.55;7.70;;;;;;;24.27;29.51;101732.23;1690754;83;28342;-62
2022/11/08 11:45:59;;;;;;;12.85;7.70;;;;;;;23.71;30.10;101738.65;1697865;83;25795;-62
2022/11/08 11:48:31;;;;;;;23.67;8.68;;;;;;;23.53;30.44;101735.05;1705764;82;25842;-62
2022/11/08 11:50:58;;;;;;;19.23;7.22;;;;;;;23.17;30.88;101731.31;1735063;82;25982;-62
2022/11/08 11:53:35;;;;;;;14.03;7.62;;;;;;;22.88;31.28;101733.67;1738136;82;25463;-62
2022/11/08 11:56:25;;;;;;;15.70;8.33;;;;;;;22.74;31.20;101734.87;1719809;82;27405;-62
2022/11/08 11:59:15;;;;;;;22.82;8.85;;;;;;;22.40;31.51;101732.27;1737720;82;25720;-62
2022/11/08 12:01:51;;;;;;;15.93;8.40;;;;;;;22.13;32.07;101733.80;1737640;82;25454;-62